createdAt,value
2019-05-15T00:00:49.082Z,509
2019-05-15T00:01:58.289Z,508
2019-05-15T00:03:05.576Z,508
2019-05-15T00:04:15.234Z,508
2019-05-15T00:05:22.433Z,508
2019-05-15T00:06:29.732Z,508
2019-05-15T00:07:39.612Z,508
2019-05-15T00:08:48.975Z,508
2019-05-15T00:09:58.462Z,508
2019-05-15T00:11:08.094Z,508
2019-05-15T00:12:15.128Z,508
2019-05-15T00:13:22.328Z,508
2019-05-15T00:14:29.887Z,508
2019-05-15T00:15:37.090Z,508
2019-05-15T00:16:49.068Z,508
2019-05-15T00:17:58.378Z,508
2019-05-15T00:19:05.576Z,507
2019-05-15T00:20:14.786Z,507
2019-05-15T00:21:21.985Z,507
2019-05-15T00:22:30.206Z,507
2019-05-15T00:23:39.687Z,506
2019-05-15T00:24:49.022Z,507
2019-05-15T00:25:58.875Z,506
2019-05-15T00:27:08.014Z,506
2019-05-15T00:28:15.378Z,506
2019-05-15T00:29:22.579Z,507
2019-05-15T00:30:29.987Z,506
2019-05-15T00:31:39.796Z,506
2019-05-15T00:32:49.578Z,507
2019-05-15T00:33:58.810Z,506
2019-05-15T00:35:06.113Z,506
2019-05-15T00:36:16.032Z,505
2019-05-15T00:37:25.618Z,505
2019-05-15T00:38:32.815Z,506
2019-05-15T00:39:40.182Z,506
2019-05-15T00:40:49.934Z,507
2019-05-15T00:41:59.962Z,506
2019-05-15T00:43:09.679Z,507
2019-05-15T00:44:19.095Z,507
2019-05-15T00:45:28.305Z,507
2019-05-15T00:46:35.502Z,507
2019-05-15T00:47:45.157Z,507
2019-05-15T00:48:52.351Z,506
2019-05-15T00:49:59.551Z,506
2019-05-15T00:51:08.877Z,506
2019-05-15T00:52:18.476Z,506
2019-05-15T00:53:25.675Z,506
2019-05-15T00:54:35.090Z,507
2019-05-15T00:55:42.085Z,507
2019-05-15T00:56:49.514Z,508
2019-05-15T00:57:58.863Z,507
2019-05-15T00:59:08.212Z,507
2019-05-15T01:00:29.213Z,507
2019-05-15T01:01:39.180Z,507
2019-05-15T01:02:48.589Z,508
2019-05-15T01:03:55.903Z,507
2019-05-15T01:05:04.996Z,506
2019-05-15T01:06:11.923Z,507
2019-05-15T01:07:19.825Z,507
2019-05-15T01:08:29.005Z,507
2019-05-15T01:09:38.286Z,506
2019-05-15T01:10:45.619Z,507
2019-05-15T01:11:52.817Z,507
2019-05-15T01:13:00.019Z,507
2019-05-15T01:14:12.529Z,508
2019-05-15T01:15:19.716Z,508
2019-05-15T01:16:29.011Z,508
2019-05-15T01:17:38.673Z,508
2019-05-15T01:18:46.286Z,509
2019-05-15T01:19:55.540Z,508
2019-05-15T01:21:02.466Z,507
2019-05-15T01:22:09.820Z,508
2019-05-15T01:23:19.221Z,509
2019-05-15T01:24:28.779Z,509
2019-05-15T01:25:35.975Z,509
2019-05-15T01:26:45.612Z,509
2019-05-15T01:27:52.540Z,508
2019-05-15T01:28:59.739Z,508
2019-05-15T01:30:09.447Z,507
2019-05-15T01:31:18.893Z,507
2019-05-15T01:32:28.523Z,508
2019-05-15T01:33:35.745Z,508
2019-05-15T01:34:42.681Z,510
2019-05-15T01:35:49.981Z,510
2019-05-15T01:36:59.577Z,510
2019-05-15T01:38:21.420Z,509
2019-05-15T01:39:30.130Z,508
2019-05-15T01:40:39.399Z,508
2019-05-15T01:41:50.429Z,509
2019-05-15T01:42:59.292Z,509
2019-05-15T01:44:08.950Z,510
2019-05-15T01:45:16.164Z,509
2019-05-15T01:46:25.612Z,509
2019-05-15T01:47:35.254Z,509
2019-05-15T01:48:42.181Z,509
2019-05-15T01:49:50.081Z,508
2019-05-15T01:50:59.429Z,508
2019-05-15T01:52:08.966Z,507
2019-05-15T01:53:15.896Z,508
2019-05-15T01:54:25.349Z,508
2019-05-15T01:55:32.546Z,508
2019-05-15T01:56:39.858Z,508
2019-05-15T01:57:49.166Z,508
2019-05-15T01:58:58.444Z,508
2019-05-15T02:00:05.645Z,508
2019-05-15T02:01:12.569Z,508
2019-05-15T02:02:19.760Z,508
2019-05-15T02:03:29.389Z,507
2019-05-15T02:04:39.148Z,508
2019-05-15T02:05:48.978Z,508
2019-05-15T02:06:58.726Z,508
2019-05-15T02:08:08.007Z,509
2019-05-15T02:09:15.101Z,509
2019-05-15T02:10:22.027Z,508
2019-05-15T02:11:29.909Z,508
2019-05-15T02:12:39.766Z,509
2019-05-15T02:13:49.006Z,508
2019-05-15T02:14:55.650Z,509
2019-05-15T02:16:02.850Z,509
2019-05-15T02:17:09.776Z,509
2019-05-15T02:18:19.583Z,508
2019-05-15T02:19:29.180Z,508
2019-05-15T02:20:38.601Z,508
2019-05-15T02:21:48.464Z,509
2019-05-15T02:22:55.786Z,509
2019-05-15T02:24:03.006Z,508
2019-05-15T02:25:09.926Z,507
2019-05-15T02:26:19.763Z,507
2019-05-15T02:27:29.823Z,508
2019-05-15T02:28:39.273Z,507
2019-05-15T02:29:46.205Z,509
2019-05-15T02:30:59.141Z,509
2019-05-15T02:32:09.901Z,509
2019-05-15T02:33:19.986Z,509
2019-05-15T02:34:30.981Z,508
2019-05-15T02:35:40.518Z,509
2019-05-15T02:36:50.425Z,509
2019-05-15T02:38:00.686Z,509
2019-05-15T02:39:09.989Z,508
2019-05-15T02:40:20.108Z,508
2019-05-15T02:41:30.610Z,509
2019-05-15T02:42:41.260Z,509
2019-05-15T02:43:51.089Z,509
2019-05-15T02:44:59.683Z,508
2019-05-15T02:46:10.519Z,508
2019-05-15T02:47:20.859Z,510
2019-05-15T02:48:29.755Z,509
2019-05-15T02:49:40.522Z,509
2019-05-15T02:50:51.037Z,510
2019-05-15T02:52:01.320Z,510
2019-05-15T02:53:11.142Z,510
2019-05-15T02:54:20.689Z,511
2019-05-15T02:55:30.550Z,511
2019-05-15T02:56:40.343Z,510
2019-05-15T02:57:50.370Z,510
2019-05-15T02:59:00.818Z,511
2019-05-15T03:00:30.113Z,510
2019-05-15T03:01:54.203Z,509
2019-05-15T03:03:01.390Z,510
2019-05-15T03:04:10.307Z,511
2019-05-15T03:05:20.504Z,511
2019-05-15T03:06:30.589Z,511
2019-05-15T03:07:41.137Z,510
2019-05-15T03:08:50.565Z,511
2019-05-15T03:10:00.867Z,511
2019-05-15T03:11:10.863Z,511
2019-05-15T03:12:20.610Z,511
2019-05-15T03:13:30.721Z,510
2019-05-15T03:14:40.847Z,510
2019-05-15T03:15:50.004Z,511
2019-05-15T03:17:00.493Z,510
2019-05-15T03:18:10.922Z,510
2019-05-15T03:19:20.378Z,510
2019-05-15T03:20:30.692Z,510
2019-05-15T03:21:39.953Z,510
2019-05-15T03:22:50.227Z,510
2019-05-15T03:24:00.426Z,510
2019-05-15T03:25:11.792Z,509
2019-05-15T03:26:20.802Z,509
2019-05-15T03:27:35.147Z,510
2019-05-15T03:28:41.892Z,510
2019-05-15T03:29:50.484Z,510
2019-05-15T03:32:00.463Z,510
2019-05-15T03:33:48.342Z,510
2019-05-15T03:35:13.087Z,510
2019-05-15T03:36:31.010Z,509
2019-05-15T03:37:40.917Z,509
2019-05-15T03:38:50.993Z,509
2019-05-15T03:40:00.679Z,509
2019-05-15T03:41:11.290Z,509
2019-05-15T03:42:20.204Z,509
2019-05-15T03:43:30.115Z,509
2019-05-15T03:44:40.292Z,508
2019-05-15T03:45:50.333Z,509
2019-05-15T03:47:00.522Z,510
2019-05-15T03:48:10.389Z,510
2019-05-15T03:49:20.801Z,510
2019-05-15T03:50:30.067Z,509
2019-05-15T03:51:46.309Z,509
2019-05-15T03:52:59.725Z,509
2019-05-15T03:54:10.242Z,509
2019-05-15T03:55:19.682Z,510
2019-05-15T03:56:29.733Z,510
2019-05-15T03:57:41.104Z,510
2019-05-15T03:58:50.456Z,509
2019-05-15T04:00:00.702Z,509
2019-05-15T04:01:43.505Z,509
2019-05-15T04:02:50.994Z,509
2019-05-15T04:04:00.881Z,509
2019-05-15T04:05:12.710Z,509
2019-05-15T04:06:20.494Z,509
2019-05-15T04:07:30.246Z,508
2019-05-15T04:08:40.257Z,507
2019-05-15T04:09:50.348Z,508
2019-05-15T04:11:00.553Z,509
2019-05-15T04:12:10.487Z,508
2019-05-15T04:13:20.693Z,509
2019-05-15T04:14:30.673Z,508
2019-05-15T04:15:40.808Z,507
2019-05-15T04:16:50.702Z,507
2019-05-15T04:18:01.212Z,508
2019-05-15T04:19:10.808Z,508
2019-05-15T04:20:20.976Z,508
2019-05-15T04:21:31.276Z,507
2019-05-15T04:22:41.267Z,507
2019-05-15T04:23:51.128Z,507
2019-05-15T04:25:00.355Z,508
2019-05-15T04:26:10.399Z,508
2019-05-15T04:27:20.677Z,508
2019-05-15T04:28:30.328Z,507
2019-05-15T04:29:40.672Z,506
2019-05-15T04:30:50.551Z,506
2019-05-15T04:32:10.085Z,506
2019-05-15T04:33:20.937Z,507
2019-05-15T04:34:30.055Z,507
2019-05-15T04:35:41.140Z,507
2019-05-15T04:36:50.809Z,506
2019-05-15T04:38:00.801Z,506
2019-05-15T04:39:10.721Z,507
2019-05-15T04:40:20.402Z,505
2019-05-15T04:41:30.749Z,505
2019-05-15T04:42:40.972Z,505
2019-05-15T04:43:50.521Z,505
2019-05-15T04:45:00.289Z,504
2019-05-15T04:46:10.900Z,505
2019-05-15T04:47:20.328Z,505
2019-05-15T04:48:30.042Z,505
2019-05-15T04:49:40.235Z,504
2019-05-15T04:50:50.677Z,504
2019-05-15T04:52:04.540Z,504
2019-05-15T04:53:12.178Z,503
2019-05-15T04:54:21.060Z,503
2019-05-15T04:55:29.855Z,503
2019-05-15T04:56:40.390Z,503
2019-05-15T04:57:51.078Z,503
2019-05-15T04:59:01.125Z,503
2019-05-15T05:00:10.992Z,502
2019-05-15T05:01:21.226Z,502
2019-05-15T05:02:33.155Z,502
2019-05-15T05:03:40.872Z,501
2019-05-15T05:04:50.391Z,502
2019-05-15T05:06:00.135Z,503
2019-05-15T05:07:10.403Z,501
2019-05-15T05:08:21.603Z,502
2019-05-15T05:09:29.652Z,502
2019-05-15T05:10:40.067Z,500
2019-05-15T05:11:49.873Z,501
2019-05-15T05:13:00.042Z,501
2019-05-15T05:14:09.546Z,501
2019-05-15T05:15:19.508Z,501
2019-05-15T05:16:29.338Z,500
2019-05-15T05:17:39.054Z,501
2019-05-15T05:18:49.251Z,500
2019-05-15T05:19:58.208Z,499
2019-05-15T05:21:07.599Z,499
2019-05-15T05:22:14.640Z,499
2019-05-15T05:23:21.311Z,500
2019-05-15T05:24:29.111Z,498
2019-05-15T05:25:38.649Z,498
2019-05-15T05:26:45.744Z,499
2019-05-15T05:27:57.941Z,498
2019-05-15T05:29:05.226Z,497
2019-05-15T05:30:12.150Z,497
2019-05-15T05:31:20.115Z,498
2019-05-15T05:32:38.721Z,497
2019-05-15T05:33:48.478Z,497
2019-05-15T05:34:55.893Z,497
2019-05-15T05:36:02.829Z,496
2019-05-15T05:37:09.756Z,496
2019-05-15T05:38:20.218Z,496
2019-05-15T05:39:29.884Z,496
2019-05-15T05:40:39.425Z,496
2019-05-15T05:41:48.550Z,496
2019-05-15T05:42:55.922Z,496
2019-05-15T05:44:03.138Z,494
2019-05-15T05:45:10.579Z,494
2019-05-15T05:46:19.506Z,494
2019-05-15T05:47:28.705Z,493
2019-05-15T05:48:38.762Z,493
2019-05-15T05:49:45.951Z,493
2019-05-15T05:50:55.474Z,493
2019-05-15T05:52:05.131Z,493
2019-05-15T05:53:12.336Z,493
2019-05-15T05:54:19.377Z,492
2019-05-15T05:55:28.343Z,493
2019-05-15T05:56:37.679Z,492
2019-05-15T05:57:44.743Z,492
2019-05-15T05:58:51.944Z,491
2019-05-15T05:59:59.315Z,490
2019-05-15T06:01:06.243Z,491
2019-05-15T06:02:18.443Z,491
2019-05-15T06:03:27.818Z,490
2019-05-15T06:04:35.037Z,491
2019-05-15T06:05:42.235Z,490
2019-05-15T06:07:14.555Z,489
2019-05-15T06:08:21.795Z,489
2019-05-15T06:09:29.000Z,489
2019-05-15T06:10:39.006Z,489
2019-05-15T06:11:46.205Z,488
2019-05-15T06:12:55.512Z,487
2019-05-15T06:14:05.130Z,487
2019-05-15T06:15:12.072Z,486
2019-05-15T06:16:20.047Z,486
2019-05-15T06:17:29.078Z,486
2019-05-15T06:18:39.192Z,486
2019-05-15T06:19:49.087Z,486
2019-05-15T06:20:58.395Z,486
2019-05-15T06:22:05.753Z,485
2019-05-15T06:23:22.129Z,485
2019-05-15T06:24:32.887Z,484
2019-05-15T06:25:40.120Z,484
2019-05-15T06:26:49.211Z,483
2019-05-15T06:27:58.779Z,483
2019-05-15T06:29:08.663Z,483
2019-05-15T06:30:31.181Z,484
2019-05-15T06:31:39.567Z,483
2019-05-15T06:33:13.670Z,483
2019-05-15T06:34:20.882Z,482
2019-05-15T06:35:32.135Z,482
2019-05-15T06:36:40.310Z,483
2019-05-15T06:37:49.460Z,482
2019-05-15T06:38:58.867Z,481
2019-05-15T06:40:08.264Z,481
2019-05-15T06:41:17.927Z,480
2019-05-15T06:42:25.293Z,479
2019-05-15T06:43:35.047Z,480
2019-05-15T06:44:42.246Z,480
2019-05-15T06:45:49.986Z,480
2019-05-15T06:46:59.653Z,481
2019-05-15T06:48:09.867Z,480
2019-05-15T06:49:18.784Z,480
2019-05-15T06:50:25.989Z,480
2019-05-15T06:51:37.755Z,479
2019-05-15T06:52:45.097Z,479
2019-05-15T06:53:52.298Z,479
2019-05-15T06:55:00.290Z,478
2019-05-15T06:56:09.009Z,479
2019-05-15T06:57:18.826Z,478
2019-05-15T06:58:28.747Z,477
2019-05-15T06:59:36.119Z,476
2019-05-15T07:00:48.402Z,476
2019-05-15T07:01:59.803Z,476
2019-05-15T07:03:29.154Z,476
2019-05-15T07:04:38.787Z,476
2019-05-15T07:05:46.000Z,475
2019-05-15T07:06:53.195Z,475
2019-05-15T07:08:00.134Z,476
2019-05-15T07:09:10.283Z,475
2019-05-15T07:10:19.903Z,475
2019-05-15T07:11:29.171Z,475
2019-05-15T07:12:38.753Z,474
2019-05-15T07:13:48.459Z,474
2019-05-15T07:14:58.028Z,474
2019-05-15T07:16:07.869Z,473
2019-05-15T07:17:15.186Z,473
2019-05-15T07:18:24.429Z,472
2019-05-15T07:19:31.631Z,472
2019-05-15T07:20:40.162Z,472
2019-05-15T07:21:49.654Z,471
2019-05-15T07:22:59.628Z,472
2019-05-15T07:24:09.615Z,472
2019-05-15T07:25:19.802Z,472
2019-05-15T07:26:29.442Z,472
2019-05-15T07:27:39.416Z,470
2019-05-15T07:28:48.186Z,471
2019-05-15T07:29:55.280Z,470
2019-05-15T07:31:05.123Z,470
2019-05-15T07:32:12.335Z,470
2019-05-15T07:33:43.517Z,470
2019-05-15T07:34:50.985Z,469
2019-05-15T07:36:00.078Z,469
2019-05-15T07:37:10.536Z,468
2019-05-15T07:38:19.291Z,469
2019-05-15T07:39:28.680Z,468
2019-05-15T07:40:39.610Z,469
2019-05-15T07:41:49.330Z,468
2019-05-15T07:42:59.435Z,467
2019-05-15T07:44:08.831Z,467
2019-05-15T07:45:19.562Z,466
2019-05-15T07:46:29.273Z,466
2019-05-15T07:47:39.056Z,466
2019-05-15T07:48:48.853Z,465
2019-05-15T07:49:55.949Z,465
2019-05-15T07:51:05.314Z,464
2019-05-15T07:52:20.546Z,463
2019-05-15T07:53:29.900Z,464
2019-05-15T07:54:39.232Z,465
2019-05-15T07:55:45.889Z,464
2019-05-15T07:56:59.085Z,464
2019-05-15T07:58:09.107Z,463
2019-05-15T07:59:18.507Z,464
2019-05-15T08:00:28.687Z,463
2019-05-15T08:01:38.399Z,462
2019-05-15T08:02:48.531Z,462
2019-05-15T08:04:29.319Z,462
2019-05-15T08:06:03.286Z,461
2019-05-15T08:07:10.534Z,461
2019-05-15T08:08:19.561Z,460
2019-05-15T08:09:29.277Z,459
2019-05-15T08:10:36.227Z,460
2019-05-15T08:11:48.350Z,460
2019-05-15T08:12:57.976Z,460
2019-05-15T08:14:05.316Z,460
2019-05-15T08:15:12.524Z,460
2019-05-15T08:16:19.736Z,458
2019-05-15T08:17:29.911Z,458
2019-05-15T08:18:39.790Z,458
2019-05-15T08:19:49.566Z,457
2019-05-15T08:20:59.481Z,458
2019-05-15T08:22:08.738Z,457
2019-05-15T08:23:16.063Z,458
2019-05-15T08:24:29.517Z,458
2019-05-15T08:25:39.351Z,458
2019-05-15T08:26:49.048Z,458
2019-05-15T08:27:58.620Z,458
2019-05-15T08:29:08.368Z,458
2019-05-15T08:30:18.188Z,456
2019-05-15T08:31:25.564Z,456
2019-05-15T08:32:35.513Z,457
2019-05-15T08:33:42.713Z,457
2019-05-15T08:34:49.919Z,457
2019-05-15T08:35:59.255Z,457
2019-05-15T08:37:08.900Z,457
2019-05-15T08:38:18.671Z,455
2019-05-15T08:39:28.327Z,455
2019-05-15T08:40:35.141Z,455
2019-05-15T08:41:49.430Z,454
2019-05-15T08:43:02.844Z,454
2019-05-15T08:44:10.039Z,454
2019-05-15T08:45:19.769Z,453
2019-05-15T08:46:28.962Z,451
2019-05-15T08:47:39.013Z,450
2019-05-15T08:48:48.894Z,454
2019-05-15T08:49:58.463Z,454
2019-05-15T08:51:05.405Z,454
2019-05-15T08:52:12.335Z,453
2019-05-15T08:53:20.496Z,452
2019-05-15T08:54:30.080Z,451
2019-05-15T08:55:40.021Z,451
2019-05-15T08:56:49.420Z,450
2019-05-15T08:58:13.833Z,451
2019-05-15T08:59:21.252Z,451
2019-05-15T09:00:30.470Z,450
2019-05-15T09:01:39.329Z,449
2019-05-15T09:02:49.410Z,449
2019-05-15T09:03:59.125Z,446
2019-05-15T09:05:08.929Z,445
2019-05-15T09:06:23.073Z,444
2019-05-15T09:07:30.449Z,445
2019-05-15T09:08:40.234Z,445
2019-05-15T09:09:49.673Z,447
2019-05-15T09:10:59.249Z,448
2019-05-15T09:12:09.203Z,447
2019-05-15T09:13:19.371Z,446
2019-05-15T09:14:29.067Z,448
2019-05-15T09:15:39.359Z,449
2019-05-15T09:16:49.384Z,448
2019-05-15T09:18:17.212Z,446
2019-05-15T09:19:29.111Z,446
2019-05-15T09:20:39.320Z,448
2019-05-15T09:21:48.793Z,449
2019-05-15T09:22:58.675Z,448
2019-05-15T09:24:05.882Z,446
2019-05-15T09:25:15.999Z,446
2019-05-15T09:26:28.826Z,446
2019-05-15T09:27:38.088Z,445
2019-05-15T09:28:45.437Z,444
2019-05-15T09:29:52.644Z,444
2019-05-15T09:31:00.199Z,443
2019-05-15T09:32:13.103Z,443
2019-05-15T09:33:21.255Z,443
2019-05-15T09:34:55.653Z,442
2019-05-15T09:36:05.846Z,442
2019-05-15T09:37:17.894Z,443
2019-05-15T09:38:25.272Z,444
2019-05-15T09:39:32.485Z,445
2019-05-15T09:40:51.377Z,444
2019-05-15T09:41:58.952Z,443
2019-05-15T09:43:10.390Z,442
2019-05-15T09:44:22.840Z,443
2019-05-15T09:45:30.043Z,442
2019-05-15T09:46:39.360Z,442
2019-05-15T09:47:49.242Z,444
2019-05-15T09:48:59.042Z,442
2019-05-15T09:50:08.937Z,443
2019-05-15T09:51:18.687Z,441
2019-05-15T09:52:25.884Z,439
2019-05-15T09:53:32.829Z,439
2019-05-15T09:54:40.110Z,438
2019-05-15T09:55:50.455Z,437
2019-05-15T09:56:59.327Z,433
2019-05-15T09:58:09.183Z,429
2019-05-15T09:59:19.579Z,427
2019-05-15T10:00:29.667Z,425
2019-05-15T10:01:39.889Z,422
2019-05-15T10:02:49.659Z,420
2019-05-15T10:03:56.868Z,419
2019-05-15T10:05:11.949Z,418
2019-05-15T10:06:21.599Z,422
2019-05-15T10:07:29.592Z,426
2019-05-15T10:08:40.062Z,431
2019-05-15T10:09:52.935Z,431
2019-05-15T10:11:00.497Z,430
2019-05-15T10:12:10.162Z,429
2019-05-15T10:13:19.494Z,423
2019-05-15T10:14:26.730Z,422
2019-05-15T10:15:38.719Z,419
2019-05-15T10:16:48.094Z,416
2019-05-15T10:17:55.465Z,415
2019-05-15T10:19:08.787Z,420
2019-05-15T10:20:18.954Z,421
2019-05-15T10:21:33.208Z,421
2019-05-15T10:22:40.419Z,422
2019-05-15T10:23:50.188Z,420
2019-05-15T10:24:59.634Z,415
2019-05-15T10:26:29.055Z,416
2019-05-15T10:27:36.247Z,416
2019-05-15T10:28:48.887Z,417
2019-05-15T10:29:56.211Z,412
2019-05-15T10:31:05.620Z,417
2019-05-15T10:32:12.833Z,416
2019-05-15T10:33:21.281Z,416
2019-05-15T10:34:29.908Z,417
2019-05-15T10:35:39.768Z,417
2019-05-15T10:36:46.698Z,414
2019-05-15T10:37:59.058Z,410
2019-05-15T10:39:09.303Z,414
2019-05-15T10:40:20.027Z,414
2019-05-15T10:41:29.150Z,416
2019-05-15T10:42:39.340Z,416
2019-05-15T10:44:00.235Z,416
2019-05-15T10:45:09.365Z,413
2019-05-15T10:46:18.742Z,411
2019-05-15T10:47:28.693Z,408
2019-05-15T10:48:39.034Z,405
2019-05-15T10:49:48.281Z,405
2019-05-15T10:51:10.550Z,411
2019-05-15T10:52:18.760Z,399
2019-05-15T10:53:25.431Z,400
2019-05-15T10:54:32.645Z,402
2019-05-15T10:55:40.589Z,400
2019-05-15T10:56:47.799Z,404
2019-05-15T10:57:55.063Z,408
2019-05-15T10:59:02.287Z,404
2019-05-15T11:00:09.497Z,409
2019-05-15T11:01:19.606Z,413
2019-05-15T11:02:29.490Z,409
2019-05-15T11:03:36.710Z,411
2019-05-15T11:04:49.197Z,410
2019-05-15T11:05:58.902Z,404
2019-05-15T11:07:06.111Z,407
2019-05-15T11:08:13.040Z,406
2019-05-15T11:09:20.251Z,403
2019-05-15T11:10:29.872Z,399
2019-05-15T11:11:36.812Z,392
2019-05-15T11:12:44.031Z,398
2019-05-15T11:13:51.228Z,400
2019-05-15T11:14:58.448Z,395
2019-05-15T11:16:05.672Z,399
2019-05-15T11:17:12.880Z,397
2019-05-15T11:18:19.814Z,397
2019-05-15T11:19:41.023Z,398
2019-05-15T11:20:49.583Z,402
2019-05-15T11:21:59.235Z,397
2019-05-15T11:23:09.017Z,391
2019-05-15T11:24:15.952Z,392
2019-05-15T11:25:23.164Z,397
2019-05-15T11:26:34.500Z,400
2019-05-15T11:27:41.718Z,399
2019-05-15T11:28:50.830Z,396
2019-05-15T11:29:59.537Z,401
2019-05-15T11:31:10.724Z,405
2019-05-15T11:32:17.936Z,403
2019-05-15T11:33:25.149Z,402
2019-05-15T11:34:32.088Z,399
2019-05-15T11:36:05.706Z,396
2019-05-15T11:37:13.048Z,398
2019-05-15T11:38:20.657Z,391
2019-05-15T11:39:29.854Z,381
2019-05-15T11:40:39.338Z,375
2019-05-15T11:41:49.673Z,365
2019-05-15T11:42:56.874Z,369
2019-05-15T11:44:04.087Z,373
2019-05-15T11:45:11.301Z,373
2019-05-15T11:46:19.614Z,374
2019-05-15T11:47:28.830Z,372
2019-05-15T11:48:35.767Z,376
2019-05-15T11:49:45.846Z,380
2019-05-15T11:50:53.060Z,382
2019-05-15T11:52:01.685Z,386
2019-05-15T11:53:09.757Z,388
2019-05-15T11:54:20.044Z,390
2019-05-15T11:55:29.703Z,397
2019-05-15T11:56:40.077Z,391
2019-05-15T11:58:09.251Z,381
2019-05-15T11:59:19.347Z,372
2019-05-15T12:00:30.945Z,364
2019-05-15T12:01:39.368Z,358
2019-05-15T12:02:46.577Z,370
2019-05-15T12:03:53.786Z,387
2019-05-15T12:05:00.738Z,400
2019-05-15T12:06:23.274Z,403
2019-05-15T12:07:30.466Z,405
2019-05-15T12:08:39.583Z,408
2019-05-15T12:09:46.826Z,408
2019-05-15T12:10:54.044Z,410
2019-05-15T12:12:01.271Z,412
2019-05-15T12:13:10.813Z,413
2019-05-15T12:14:20.536Z,410
2019-05-15T12:15:28.999Z,412
2019-05-15T12:16:40.584Z,409
2019-05-15T12:17:49.551Z,404
2019-05-15T12:19:23.201Z,399
2019-05-15T12:20:30.435Z,396
2019-05-15T12:21:40.498Z,394
2019-05-15T12:22:49.601Z,394
2019-05-15T12:23:59.507Z,401
2019-05-15T12:25:11.008Z,395
2019-05-15T12:26:17.958Z,394
2019-05-15T12:27:25.168Z,394
2019-05-15T12:28:34.975Z,390
2019-05-15T12:29:42.243Z,387
2019-05-15T12:30:50.286Z,380
2019-05-15T12:32:28.672Z,389
2019-05-15T12:33:43.481Z,387
2019-05-15T12:34:50.737Z,377
2019-05-15T12:35:57.686Z,371
2019-05-15T12:37:04.928Z,372
2019-05-15T12:38:12.141Z,376
2019-05-15T12:39:30.758Z,373
2019-05-15T13:00:44.018Z,397
2019-05-15T13:01:51.228Z,393
2019-05-15T13:03:00.425Z,416
2019-05-15T13:04:09.013Z,422
2019-05-15T13:05:19.017Z,426
2019-05-15T13:06:29.424Z,398
2019-05-15T13:07:38.865Z,388
2019-05-15T13:08:48.638Z,383
2019-05-15T13:09:58.432Z,380
2019-05-15T13:13:05.282Z,383
2019-05-15T13:14:16.021Z,377
2019-05-15T13:15:28.033Z,384
2019-05-15T13:16:35.346Z,375
2019-05-15T13:17:42.285Z,374
2019-05-15T13:18:49.240Z,380
2019-05-15T13:19:59.129Z,394
2019-05-15T13:21:06.569Z,399
2019-05-15T13:22:25.228Z,399
2019-05-15T13:23:32.458Z,384
2019-05-15T13:24:39.766Z,389
2019-05-15T13:25:48.937Z,393
2019-05-15T13:26:58.207Z,395
2019-05-15T13:28:05.567Z,387
2019-05-15T13:29:12.514Z,381
2019-05-15T13:30:19.730Z,377
2019-05-15T13:31:29.319Z,376
2019-05-15T13:32:36.527Z,379
2019-05-15T13:33:49.165Z,382
2019-05-15T13:34:59.882Z,381
2019-05-15T13:36:09.817Z,384
2019-05-15T13:37:31.405Z,384
2019-05-15T13:38:39.202Z,381
2019-05-15T13:39:49.020Z,383
2019-05-15T13:40:58.662Z,392
2019-05-15T13:42:05.907Z,401
2019-05-15T13:43:13.117Z,403
2019-05-15T13:44:20.340Z,402
2019-05-15T13:45:29.185Z,402
2019-05-15T13:46:39.038Z,401
2019-05-15T13:47:46.256Z,400
2019-05-15T13:48:53.460Z,402
2019-05-15T13:50:00.668Z,402
2019-05-15T13:51:07.611Z,408
2019-05-15T13:52:14.813Z,405
2019-05-15T13:53:22.189Z,404
2019-05-15T13:54:29.741Z,403
2019-05-15T13:55:43.584Z,404
2019-05-15T13:56:50.800Z,404
2019-05-15T13:57:59.020Z,405
2019-05-15T13:59:08.421Z,407
2019-05-15T14:00:15.373Z,409
2019-05-15T14:01:22.326Z,409
2019-05-15T14:02:29.260Z,410
2019-05-15T14:03:38.844Z,412
2019-05-15T14:04:48.887Z,409
2019-05-15T14:05:58.742Z,410
2019-05-15T14:07:08.363Z,408
2019-05-15T14:08:17.850Z,406
2019-05-15T14:09:25.219Z,409
2019-05-15T14:10:39.827Z,412
2019-05-15T14:11:50.464Z,414
2019-05-15T14:12:59.387Z,417
2019-05-15T14:14:06.602Z,415
2019-05-15T14:15:13.816Z,418
2019-05-15T14:16:21.034Z,416
2019-05-15T14:17:29.302Z,414
2019-05-15T14:18:38.911Z,415
2019-05-15T14:19:48.429Z,417
2019-05-15T14:20:58.188Z,418
2019-05-15T14:22:07.862Z,420
2019-05-15T14:23:15.187Z,420
2019-05-15T14:24:21.847Z,420
2019-05-15T14:25:29.169Z,419
2019-05-15T14:26:36.122Z,418
2019-05-15T14:27:43.334Z,417
2019-05-15T14:28:50.553Z,418
2019-05-15T14:29:59.150Z,423
2019-05-15T14:31:09.412Z,424
2019-05-15T14:32:38.527Z,422
2019-05-15T14:33:48.585Z,423
2019-05-15T14:34:58.348Z,423
2019-05-15T14:36:05.452Z,426
2019-05-15T14:37:14.944Z,426
2019-05-15T14:38:22.159Z,427
2019-05-15T14:39:29.366Z,428
2019-05-15T14:40:36.030Z,430
2019-05-15T14:41:43.237Z,430
2019-05-15T14:42:50.454Z,431
2019-05-15T14:44:21.335Z,434
2019-05-15T14:45:29.078Z,431
2019-05-15T14:46:38.685Z,430
2019-05-15T14:47:45.896Z,428
2019-05-15T14:48:57.941Z,430
2019-05-15T14:50:05.481Z,431
2019-05-15T14:51:12.970Z,432
2019-05-15T14:52:20.179Z,431
2019-05-15T14:53:30.302Z,432
2019-05-15T14:54:39.473Z,432
2019-05-15T14:55:50.189Z,432
2019-05-15T14:56:59.131Z,430
2019-05-15T14:58:08.732Z,431
2019-05-15T14:59:15.940Z,431
2019-05-15T15:00:28.514Z,431
2019-05-15T15:01:41.421Z,432
2019-05-15T15:02:50.255Z,433
2019-05-15T15:03:59.172Z,434
2019-05-15T15:05:09.442Z,435
2019-05-15T15:06:19.136Z,435
2019-05-15T15:07:28.744Z,433
2019-05-15T15:08:35.687Z,434
2019-05-15T15:09:42.898Z,434
2019-05-15T15:10:49.847Z,435
2019-05-15T15:11:57.071Z,434
2019-05-15T15:13:04.011Z,436
2019-05-15T15:14:11.218Z,436
2019-05-15T15:15:19.117Z,437
2019-05-15T15:16:26.929Z,437
2019-05-15T15:17:39.131Z,437
2019-05-15T15:18:49.196Z,438
2019-05-15T15:20:01.073Z,438
2019-05-15T15:21:09.725Z,438
2019-05-15T15:22:16.661Z,439
2019-05-15T15:23:39.280Z,438
2019-05-15T15:24:49.459Z,441
2019-05-15T15:25:59.081Z,440
2019-05-15T15:27:09.038Z,440
2019-05-15T15:28:19.292Z,440
2019-05-15T15:29:29.100Z,439
2019-05-15T15:30:39.266Z,440
2019-05-15T15:31:49.694Z,439
2019-05-15T15:32:58.405Z,440
2019-05-15T15:34:05.343Z,441
2019-05-15T15:35:12.568Z,440
2019-05-15T15:36:20.045Z,440
2019-05-15T15:37:29.864Z,441
2019-05-15T15:38:44.765Z,440
2019-05-15T15:39:51.976Z,440
2019-05-15T15:41:01.269Z,439
2019-05-15T15:42:09.646Z,440
2019-05-15T15:43:16.859Z,439
2019-05-15T15:44:24.287Z,439
2019-05-15T15:45:31.939Z,440
2019-05-15T15:46:40.919Z,439
2019-05-15T15:47:49.578Z,438
2019-05-15T15:48:59.941Z,438
2019-05-15T15:50:10.665Z,438
2019-05-15T15:51:19.030Z,438
2019-05-15T15:52:29.320Z,438
2019-05-15T15:53:38.893Z,439
2019-05-15T15:54:46.481Z,439
2019-05-15T15:55:53.987Z,438
2019-05-15T15:57:01.559Z,438
2019-05-15T15:58:11.129Z,438
2019-05-15T15:59:19.752Z,438
2019-05-15T16:00:29.992Z,438
2019-05-15T16:01:40.373Z,439
2019-05-15T16:02:49.846Z,440
2019-05-15T16:03:57.170Z,440
2019-05-15T16:05:05.001Z,440
2019-05-15T16:06:15.346Z,440
2019-05-15T16:07:25.663Z,440
2019-05-15T16:08:55.534Z,439
2019-05-15T16:10:02.965Z,438
2019-05-15T16:11:09.620Z,438
2019-05-15T16:12:19.464Z,441
2019-05-15T16:13:28.997Z,440
2019-05-15T16:14:38.290Z,440
2019-05-15T16:15:45.503Z,440
2019-05-15T16:16:52.711Z,441
2019-05-15T16:18:00.480Z,441
2019-05-15T16:19:07.685Z,441
2019-05-15T16:20:14.893Z,440
2019-05-15T16:21:22.091Z,439
2019-05-15T16:22:29.464Z,439
2019-05-15T16:23:39.056Z,438
2019-05-15T16:24:46.272Z,437
2019-05-15T16:25:58.219Z,437